Impacts METAR Board
IDs:

KCLE - Cleveland/Hopkins In, OH, US

Updated at: 0300 UTC 06 Dec 2019
Potential Impact None Slight Moderate High
Time 05/15Z 05/16Z 05/17Z 05/18Z 05/19Z 05/20Z 05/21Z 05/22Z 05/23Z 06/00Z 06/01Z 06/02Z 06/03Z
Temp37 37 38 38 38 39 40 37 37 34 33 34 34
Dewpt26 26 28 25 27 28 28 27 27 27 28 29 28
Altim30.02 30.05 30.04 30.05 30.06 30.07 30.07 30.08 30.10 30.10 30.10 30.09 30.07
VIS10 10 10 10 10 10 10 10 10 10 10 10 10
CIG38 39 40 36 100 95 90 -- -- 90 110 110 110
CoverBKNOVCOVCOVCOVCOVCBKNSCTSCTBKNOVCOVCOVC
FltCatVFRVFRVFRVFRVFRVFRVFRVFRVFRVFRVFRVFRVFR
WX--------------------------
WDir26029028028029027028029000140160160
WSpd13 12 9 11 12 7 6 4 0 0 4 7 7
WGst21 21 -- 20 -- -- -- -- -- -- -- -- --
Raw hourly METARs
KCLE 051451Z 26013G21KT 10SM BKN038 03/M03 A3002 RMK AO2 SLP172 T00281033 53025
KCLE 051551Z 29012G21KT 10SM OVC039 03/M03 A3005 RMK AO2 SLP183 T00281033
KCLE 051651Z 28009KT 10SM FEW026 OVC040 03/M02 A3004 RMK AO2 SLP180 T00331022
KCLE 051751Z 28011G20KT 10SM BKN036 OVC080 03/M04 A3005 RMK AO2 SLP183 4/001 T00331039 10039 20011 51011
KCLE 051851Z 29012KT 10SM SCT035 OVC100 03/M03 A3006 RMK AO2 SLP185 T00331028
KCLE 051951Z 27007KT 10SM SCT035 OVC095 04/M02 A3007 RMK AO2 SLP189 T00391022
KCLE 052051Z 28006KT 10SM BKN090 04/M02 A3007 RMK AO2 SLP188 T00441022 51006
KCLE 052151Z 29004KT 10SM SCT095 03/M03 A3008 RMK AO2 SLP191 T00281028
KCLE 052251Z 00000KT 10SM SCT090 03/M03 A3010 RMK AO2 SLP199 T00281028
KCLE 052351Z 00000KT 10SM BKN090 01/M03 A3010 RMK AO2 SLP200 T00111028 10050 20006 51009
KCLE 060051Z 14004KT 10SM OVC110 01/M02 A3010 RMK AO2 SLP200 T00061022
KCLE 060151Z 16007KT 10SM FEW090 OVC110 01/M02 A3009 RMK AO2 SLP196 T00111017
KCLE 060251Z 16007KT 10SM OVC110 01/M02 A3007 RMK AO2 SLP190 T00111022 58009



Page loaded:  03:52 UTC  |   07:52 PM Pacific  |   08:52 PM Mountain  |   09:52 PM Central  |   10:52 PM Eastern

 

ADVISORIES

FORECASTS

FORECASTS

OBSERVATIONS

USER TOOLS

ABOUT US